Time;durP1;ratioP1;P1;durP2;ratioP2;P2;SDS_P1;SDS_P2;PMS_P1;PMS_P2;Temp;Humidity;BMP_temperature;BMP_pressure;BME280_temperature;BME280_humidity;BME280_pressure;Samples;Min_cycle;Max_cycle;Signal;HPM_P1;HPM_P2
2023/01/14 00:00:37;;;;;;;18.80;3.35;;;7.10;99.90;;;;;;4999828;28;20041;-87
2023/01/14 00:03:02;;;;;;;21.45;4.15;;;7.20;99.90;;;;;;4999324;28;20037;-87
2023/01/14 00:05:31;;;;;;;17.02;3.42;;;7.20;99.90;;;;;;5011595;28;20030;-88
2023/01/14 00:07:57;;;;;;;23.23;3.88;;;7.20;99.90;;;;;;5024969;28;20381;-87
2023/01/14 00:10:23;;;;;;;22.13;3.58;;;7.20;99.90;;;;;;4998969;28;20469;-87
2023/01/14 00:12:48;;;;;;;16.63;4.00;;;7.30;99.90;;;;;;5012959;28;20121;-87
2023/01/14 00:15:14;;;;;;;19.23;3.90;;;7.30;99.90;;;;;;4999484;28;20045;-86
2023/01/14 00:17:40;;;;;;;12.05;3.10;;;7.30;99.90;;;;;;5007699;28;20589;-88
2023/01/14 00:20:06;;;;;;;18.55;3.75;;;7.30;99.90;;;;;;5000383;28;20041;-88
2023/01/14 00:22:31;;;;;;;16.30;3.25;;;7.40;99.90;;;;;;5015590;28;20117;-88
2023/01/14 00:25:00;;;;;;;16.38;3.33;;;7.40;99.90;;;;;;4997069;28;20054;-88
2023/01/14 00:27:26;;;;;;;19.20;3.55;;;7.40;99.90;;;;;;4996420;28;20121;-88
2023/01/14 00:29:51;;;;;;;19.33;3.35;;;7.40;99.90;;;;;;5012321;28;20190;-88
2023/01/14 00:32:17;;;;;;;22.65;3.22;;;7.40;99.90;;;;;;5011494;28;20621;-87
2023/01/14 00:34:43;;;;;;;23.40;3.90;;;7.40;99.90;;;;;;4996927;28;20033;-87
2023/01/14 00:37:08;;;;;;;11.43;3.00;;;7.40;99.90;;;;;;5002346;28;20048;-87
2023/01/14 00:39:34;;;;;;;13.90;3.08;;;7.40;99.90;;;;;;5011688;28;20386;-86
2023/01/14 00:42:00;;;;;;;15.88;3.08;;;7.40;99.90;;;;;;4996779;28;20091;-88
2023/01/14 00:44:25;;;;;;;14.77;4.20;;;7.50;99.90;;;;;;5009631;28;20437;-88
2023/01/14 00:46:53;;;;;;;12.77;2.85;;;7.50;99.90;;;;;;5014855;28;20033;-88
2023/01/14 00:49:21;;;;;;;14.77;3.08;;;7.50;99.90;;;;;;5024023;28;20041;-87
2023/01/14 00:51:48;;;;;;;17.83;3.50;;;7.50;99.90;;;;;;5014486;28;20152;-87
2023/01/14 00:54:14;;;;;;;13.85;2.55;;;7.60;99.90;;;;;;4996237;28;20037;-87
2023/01/14 00:56:43;;;;;;;14.40;4.13;;;7.60;99.90;;;;;;5013401;28;20069;-88
2023/01/14 00:59:19;;;;;;;12.95;3.35;;;7.50;99.90;;;;;;5007192;28;20048;-87
2023/01/14 01:01:52;;;;;;;22.20;3.70;;;7.50;99.90;;;;;;5009313;28;20665;-86
2023/01/14 01:04:18;;;;;;;17.92;2.97;;;7.50;99.90;;;;;;4999215;28;20038;-87
2023/01/14 01:06:43;;;;;;;16.17;3.10;;;7.50;99.90;;;;;;5004572;28;20405;-87
2023/01/14 01:09:09;;;;;;;15.55;2.75;;;7.50;99.90;;;;;;4999551;28;20129;-87
2023/01/14 01:11:35;;;;;;;16.52;3.00;;;7.50;99.90;;;;;;5025211;28;20038;-88
2023/01/14 01:14:04;;;;;;;17.90;3.13;;;7.50;99.90;;;;;;4996048;28;20214;-87
2023/01/14 01:16:30;;;;;;;17.13;3.42;;;7.40;99.90;;;;;;5001869;28;20042;-88
2023/01/14 01:18:56;;;;;;;19.25;3.97;;;7.30;99.90;;;;;;5011313;28;20041;-87
2023/01/14 01:21:23;;;;;;;13.48;2.95;;;7.40;99.90;;;;;;5009276;28;20038;-87
2023/01/14 01:23:49;;;;;;;14.55;3.05;;;7.30;99.90;;;;;;5005742;28;20084;-87
2023/01/14 01:26:18;;;;;;;11.85;3.35;;;7.20;99.90;;;;;;4998709;28;20060;-88
2023/01/14 01:28:47;;;;;;;20.83;3.47;;;7.20;99.90;;;;;;4998484;28;20115;-87
2023/01/14 01:31:14;;;;;;;21.95;4.13;;;7.20;99.90;;;;;;5000993;28;20376;-88
2023/01/14 01:33:40;;;;;;;18.48;3.88;;;7.10;99.90;;;;;;5009828;28;20511;-88
2023/01/14 01:36:19;;;;;;;17.55;3.22;;;7.10;99.90;;;;;;4996226;28;20241;-88
2023/01/14 01:38:45;;;;;;;17.02;3.05;;;7.10;99.90;;;;;;4996365;28;20064;-87
2023/01/14 01:41:29;;;;;;;24.02;5.07;;;7.10;99.90;;;;;;4998066;28;20057;-88
2023/01/14 01:44:03;;;;;;;14.05;2.97;;;7.00;99.90;;;;;;5006564;28;20052;-88
2023/01/14 01:46:29;;;;;;;16.65;4.03;;;6.90;99.90;;;;;;5000902;28;20465;-87
2023/01/14 01:49:00;;;;;;;18.00;3.90;;;6.90;99.90;;;;;;5009618;28;20038;-87
2023/01/14 01:51:30;;;;;;;14.40;3.35;;;6.80;99.90;;;;;;4996071;28;20046;-87
2023/01/14 01:53:57;;;;;;;21.00;3.35;;;6.80;99.90;;;;;;5006862;28;20041;-87
2023/01/14 01:56:28;;;;;;;17.63;3.03;;;6.80;99.90;;;;;;4995197;28;20070;-88
2023/01/14 01:58:56;;;;;;;23.08;3.50;;;6.80;99.90;;;;;;5000223;28;20077;-87
2023/01/14 02:01:23;;;;;;;14.38;3.35;;;6.80;99.90;;;;;;5013225;28;20199;-86
2023/01/14 02:03:50;;;;;;;17.40;3.60;;;6.80;99.90;;;;;;5012190;28;20037;-88
2023/01/14 02:06:19;;;;;;;20.15;4.28;;;6.80;99.90;;;;;;5011553;28;20041;-87
2023/01/14 02:08:49;;;;;;;14.85;2.97;;;6.90;99.90;;;;;;5008991;28;20439;-88
2023/01/14 02:11:55;;;;;;;11.85;2.80;;;7.00;99.90;;;;;;5013474;28;20077;-87
2023/01/14 02:14:46;;;;;;;12.20;2.85;;;7.10;99.90;;;;;;4996730;28;20610;-86
2023/01/14 02:17:18;;;;;;;19.15;4.10;;;7.10;99.90;;;;;;5001766;28;20072;-87
2023/01/14 02:20:13;;;;;;;20.95;4.57;;;7.20;99.90;;;;;;5000710;28;20038;-87
2023/01/14 02:23:00;;;;;;;16.58;3.58;;;7.20;99.90;;;;;;5022707;28;20045;-87
2023/01/14 02:25:41;;;;;;;15.70;3.45;;;7.20;99.90;;;;;;4997395;28;20744;-87
2023/01/14 02:28:44;;;;;;;15.65;3.22;;;7.10;99.90;;;;;;5005671;28;20469;-87
2023/01/14 02:31:17;;;;;;;17.83;3.88;;;7.10;99.90;;;;;;5004270;28;20044;-86
2023/01/14 02:33:42;;;;;;;20.75;3.83;;;7.10;99.90;;;;;;5008158;28;20058;-88
2023/01/14 02:36:35;;;;;;;17.08;3.42;;;7.00;99.90;;;;;;4997271;28;20049;-87
2023/01/14 02:39:23;;;;;;;16.23;3.67;;;6.90;99.90;;;;;;5010183;28;20042;-88
2023/01/14 02:44:58;;;;;;;18.65;3.05;;;6.80;99.90;;;;;;5015817;28;20091;-86
2023/01/14 02:47:26;;;;;;;24.20;3.60;;;6.70;99.90;;;;;;5015599;28;20030;-87
2023/01/14 02:49:54;;;;;;;24.15;3.88;;;6.60;99.90;;;;;;4998083;28;20067;-88
2023/01/14 02:52:20;;;;;;;23.60;3.55;;;6.60;99.90;;;;;;5011195;28;20172;-88
2023/01/14 02:54:58;;;;;;;18.60;3.67;;;6.60;99.90;;;;;;5010831;28;20068;-88
2023/01/14 02:57:39;;;;;;;14.98;4.22;;;6.60;99.90;;;;;;5017528;28;20061;-87
2023/01/14 03:00:35;;;;;;;23.17;3.42;;;6.60;99.90;;;;;;5020423;28;20136;-88
2023/01/14 03:03:03;;;;;;;;;;;6.60;99.90;;;;;;5015962;28;20037;-88
2023/01/14 03:05:47;;;;;;;20.27;4.22;;;6.60;99.90;;;;;;5033015;28;19925;-88
2023/01/14 03:08:38;;;;;;;18.53;3.57;;;6.60;99.90;;;;;;5014944;28;20429;-87
2023/01/14 03:11:10;;;;;;;17.45;3.50;;;6.50;99.90;;;;;;5006661;28;20037;-88
2023/01/14 03:13:44;;;;;;;30.30;4.13;;;6.50;99.90;;;;;;5008280;28;20501;-86
2023/01/14 03:16:15;;;;;;;21.67;4.25;;;6.50;99.90;;;;;;5023485;28;20038;-88
2023/01/14 03:18:57;;;;;;;24.65;4.05;;;6.40;99.90;;;;;;5002886;28;20044;-89
2023/01/14 03:21:46;;;;;;;29.00;3.58;;;6.40;99.90;;;;;;5000684;28;20049;-88
2023/01/14 03:24:22;;;;;;;18.83;3.28;;;6.50;99.90;;;;;;5018479;28;20064;-87
2023/01/14 03:26:49;;;;;;;26.92;3.78;;;6.40;99.90;;;;;;5007404;28;20428;-86
2023/01/14 03:29:26;;;;;;;19.42;3.70;;;6.30;99.90;;;;;;5004793;28;20113;-88
2023/01/14 03:32:00;;;;;;;20.15;3.72;;;6.30;99.90;;;;;;4999764;28;20112;-88
2023/01/14 03:34:35;;;;;;;23.60;3.83;;;6.20;99.90;;;;;;5027104;28;20132;-86
2023/01/14 03:37:05;;;;;;;20.52;4.38;;;6.10;99.90;;;;;;4997133;28;20538;-87
2023/01/14 03:39:32;;;;;;;12.82;3.08;;;6.10;99.90;;;;;;5013453;28;20045;-87
2023/01/14 03:42:17;;;;;;;24.52;3.45;;;6.10;99.90;;;;;;4999440;28;20052;-88
2023/01/14 03:45:08;;;;;;;23.83;4.68;;;6.10;99.90;;;;;;4999740;28;20207;-87
2023/01/14 03:47:35;;;;;;;18.23;4.15;;;6.10;99.90;;;;;;5000228;28;20045;-88
2023/01/14 03:50:09;;;;;;;17.05;3.30;;;6.10;99.90;;;;;;5012638;28;20116;-87
2023/01/14 03:52:46;;;;;;;24.00;3.00;;;6.10;99.90;;;;;;5009703;28;20045;-88
2023/01/14 03:55:32;;;;;;;15.32;3.15;;;6.10;99.90;;;;;;5011783;28;20057;-87
2023/01/14 03:58:10;;;;;;;19.65;3.20;;;6.10;99.90;;;;;;5014659;28;20523;-88
2023/01/14 04:00:41;;;;;;;14.70;3.00;;;6.00;99.90;;;;;;5016014;28;20056;-88
2023/01/14 04:03:12;;;;;;;17.45;3.53;;;6.00;99.90;;;;;;5012538;28;20037;-87
2023/01/14 04:05:47;;;;;;;20.58;3.17;;;6.00;99.90;;;;;;5011686;28;20038;-88
2023/01/14 04:08:13;;;;;;;15.18;3.72;;;6.00;99.90;;;;;;5015448;28;20355;-87
2023/01/14 04:10:39;;;;;;;26.20;4.00;;;5.90;99.90;;;;;;5007932;28;20034;-88
2023/01/14 04:15:48;;;;;;;19.52;3.17;;;5.90;99.90;;;;;;5020410;28;20049;-87
2023/01/14 04:18:14;;;;;;;27.85;4.25;;;6.00;99.90;;;;;;5015305;28;20429;-87
2023/01/14 04:20:40;;;;;;;23.58;4.72;;;5.90;99.90;;;;;;4998843;28;20124;-87
2023/01/14 04:23:05;;;;;;;19.38;4.35;;;5.90;99.90;;;;;;4999709;28;20203;-87
2023/01/14 04:25:31;;;;;;;23.55;4.03;;;5.90;99.90;;;;;;4996337;28;20058;-88
2023/01/14 04:27:57;;;;;;;22.40;3.75;;;5.90;99.90;;;;;;5008290;28;20555;-87
2023/01/14 04:30:22;;;;;;;19.58;4.10;;;5.90;99.90;;;;;;4997478;28;20033;-87
2023/01/14 04:32:48;;;;;;;17.83;3.55;;;5.90;99.90;;;;;;4999630;28;20041;-87
2023/01/14 04:35:14;;;;;;;17.05;3.50;;;5.80;99.90;;;;;;5018690;28;20044;-87
2023/01/14 04:37:39;;;;;;;20.25;3.85;;;5.80;99.90;;;;;;5011901;28;20061;-88
2023/01/14 04:40:05;;;;;;;17.15;3.47;;;5.80;99.90;;;;;;5015008;28;20067;-86
2023/01/14 04:42:31;;;;;;;17.30;3.20;;;5.80;99.90;;;;;;5014304;28;20052;-88
2023/01/14 04:45:01;;;;;;;20.25;4.07;;;5.70;99.90;;;;;;4998913;28;20088;-88
2023/01/14 04:47:28;;;;;;;13.27;3.28;;;5.80;99.90;;;;;;5014695;28;20048;-87
2023/01/14 04:49:55;;;;;;;23.98;4.63;;;5.80;99.90;;;;;;4997289;28;20289;-87
2023/01/14 04:52:23;;;;;;;18.10;3.75;;;5.70;99.90;;;;;;4996991;28;20034;-87
2023/01/14 04:54:52;;;;;;;21.42;3.67;;;5.80;99.90;;;;;;4996629;28;20098;-88
2023/01/14 04:57:18;;;;;;;17.92;3.97;;;5.70;99.90;;;;;;4998647;28;20301;-87
2023/01/14 04:59:44;;;;;;;17.73;3.53;;;5.60;99.90;;;;;;4999002;28;20744;-88
2023/01/14 05:02:09;;;;;;;13.27;2.92;;;5.70;99.90;;;;;;4998053;28;20045;-88
2023/01/14 05:04:35;;;;;;;17.23;3.00;;;5.60;99.90;;;;;;4997052;28;20431;-88
2023/01/14 05:07:02;;;;;;;16.42;3.05;;;5.70;99.90;;;;;;4999242;28;20098;-87
2023/01/14 05:09:28;;;;;;;16.48;3.72;;;5.60;99.90;;;;;;4999341;28;20103;-88
2023/01/14 05:11:56;;;;;;;22.13;3.65;;;5.70;99.90;;;;;;4997095;28;20108;-87
2023/01/14 05:14:22;;;;;;;14.57;3.22;;;5.70;99.90;;;;;;5009335;28;20041;-87
2023/01/14 05:16:48;;;;;;;15.48;3.28;;;5.70;99.90;;;;;;5000466;28;20135;-87
2023/01/14 05:19:13;;;;;;;16.25;4.10;;;5.70;99.90;;;;;;5014434;28;20060;-88
2023/01/14 05:21:39;;;;;;;17.20;3.63;;;5.70;99.90;;;;;;5014388;28;20390;-87
2023/01/14 05:24:05;;;;;;;18.63;3.50;;;5.70;99.90;;;;;;4995868;28;20485;-87
2023/01/14 05:26:30;;;;;;;24.15;4.55;;;5.70;99.90;;;;;;5014885;28;20523;-88
2023/01/14 05:28:56;;;;;;;19.75;3.92;;;5.60;99.90;;;;;;5007742;28;20038;-88
2023/01/14 05:31:22;;;;;;;16.58;3.20;;;5.70;99.90;;;;;;4996893;28;20037;-87
2023/01/14 05:33:47;;;;;;;18.70;3.30;;;5.70;99.90;;;;;;4997064;28;20025;-87
2023/01/14 05:36:13;;;;;;;19.30;3.58;;;5.70;99.90;;;;;;4999653;28;20377;-87
2023/01/14 05:38:38;;;;;;;16.88;3.97;;;5.70;99.90;;;;;;5007807;28;20226;-87
2023/01/14 05:41:04;;;;;;;16.08;3.30;;;5.70;99.90;;;;;;5014751;28;20037;-87
2023/01/14 05:46:28;;;;;;;20.75;4.68;;;5.70;99.90;;;;;;4999522;28;20188;-88
2023/01/14 05:48:53;;;;;;;21.10;3.70;;;5.80;99.90;;;;;;4997510;28;21254;-87
2023/01/14 05:51:19;;;;;;;20.88;4.13;;;5.80;99.90;;;;;;5010514;28;20080;-88
2023/01/14 05:53:48;;;;;;;16.45;4.32;;;5.80;99.90;;;;;;5009566;28;20072;-87
2023/01/14 05:56:13;;;;;;;22.30;4.20;;;5.80;99.90;;;;;;4998411;28;20284;-88
2023/01/14 05:58:39;;;;;;;19.58;3.70;;;5.80;99.90;;;;;;4997996;28;20045;-88
2023/01/14 06:06:39;;;;;;;19.73;4.47;;;5.80;99.90;;;;;;5022336;28;20427;-87
2023/01/14 06:09:07;;;;;;;19.02;4.32;;;5.80;99.90;;;;;;5007691;28;20049;-88
2023/01/14 06:11:33;;;;;;;19.55;3.80;;;5.80;99.90;;;;;;5001820;28;20045;-88
2023/01/14 06:14:00;;;;;;;29.90;5.28;;;5.80;99.90;;;;;;4996110;28;20072;-87
2023/01/14 06:16:38;;;;;;;19.17;4.00;;;5.80;99.90;;;;;;5004583;28;20069;-87
2023/01/14 06:19:05;;;;;;;19.42;4.38;;;5.80;99.90;;;;;;5008975;28;20045;-87
2023/01/14 06:21:31;;;;;;;20.02;5.05;;;5.80;99.90;;;;;;5013640;28;20601;-87
2023/01/14 06:23:58;;;;;;;23.20;5.18;;;5.80;99.90;;;;;;4994371;28;20062;-88
2023/01/14 06:26:27;;;;;;;23.08;4.85;;;5.80;99.90;;;;;;4996325;28;20136;-88
2023/01/14 06:29:02;;;;;;;21.27;4.65;;;5.80;99.90;;;;;;5026950;28;20087;-87
2023/01/14 06:31:28;;;;;;;25.60;5.35;;;5.80;99.90;;;;;;5001453;28;20052;-88
2023/01/14 06:33:55;;;;;;;30.30;6.15;;;5.80;99.90;;;;;;5018560;28;20038;-88
2023/01/14 06:36:22;;;;;;;23.98;6.13;;;5.80;99.90;;;;;;5001537;28;20038;-87
2023/01/14 06:38:47;;;;;;;27.45;7.38;;;5.80;99.90;;;;;;5003487;28;20050;-87
2023/01/14 06:41:16;;;;;;;28.35;7.05;;;5.80;99.90;;;;;;4999929;28;20041;-86
2023/01/14 06:43:42;;;;;;;27.65;6.93;;;5.80;99.90;;;;;;5012824;28;20490;-86
2023/01/14 06:46:12;;;;;;;27.40;6.72;;;5.80;99.90;;;;;;5018043;28;20060;-87
2023/01/14 06:48:39;;;;;;;24.92;6.65;;;5.80;99.90;;;;;;5000577;28;20045;-88
2023/01/14 06:51:07;;;;;;;33.53;7.43;;;5.80;99.90;;;;;;5025837;28;20348;-87
2023/01/14 06:53:33;;;;;;;28.40;6.93;;;5.80;99.90;;;;;;5007298;28;20067;-88
2023/01/14 06:56:11;;;;;;;33.60;7.80;;;5.70;99.90;;;;;;4999435;28;20049;-88
2023/01/14 06:58:38;;;;;;;33.20;7.40;;;5.80;99.90;;;;;;5013544;28;20041;-87
2023/01/14 07:01:05;;;;;;;27.08;7.40;;;5.80;99.90;;;;;;5025649;28;20102;-87
2023/01/14 07:03:31;;;;;;;27.40;7.05;;;5.80;99.90;;;;;;5015635;28;20048;-89
2023/01/14 07:05:59;;;;;;;27.13;8.27;;;5.80;99.90;;;;;;5013291;28;20425;-88
2023/01/14 07:08:28;;;;;;;29.45;7.30;;;5.80;99.90;;;;;;5010605;28;20034;-86
2023/01/14 07:10:54;;;;;;;30.65;7.70;;;5.80;99.90;;;;;;4999372;28;20597;-88
2023/01/14 07:13:21;;;;;;;32.60;6.90;;;5.80;99.90;;;;;;5004236;28;20133;-88
2023/01/14 07:15:47;;;;;;;26.58;6.55;;;5.90;99.90;;;;;;5000440;28;20045;-87
2023/01/14 07:18:14;;;;;;;30.38;7.30;;;5.90;99.90;;;;;;5002293;28;20104;-86
2023/01/14 07:20:40;;;;;;;33.95;7.10;;;5.90;99.90;;;;;;5009135;28;20038;-87
2023/01/14 07:23:06;;;;;;;28.50;6.25;;;5.90;99.90;;;;;;4997456;28;20044;-88
2023/01/14 07:25:31;;;;;;;24.15;6.25;;;5.90;99.90;;;;;;5014595;28;20057;-87
2023/01/14 07:27:57;;;;;;;30.48;6.65;;;5.90;99.90;;;;;;5002631;28;20431;-87
2023/01/14 07:30:23;;;;;;;27.92;7.00;;;6.00;99.90;;;;;;4998473;28;20114;-88
2023/01/14 07:32:51;;;;;;;27.77;5.53;;;6.00;99.90;;;;;;5008386;28;20041;-87
2023/01/14 07:35:17;;;;;;;24.80;6.85;;;6.00;99.90;;;;;;5001953;28;20054;-86
2023/01/14 07:37:42;;;;;;;32.60;7.03;;;6.00;99.90;;;;;;5022908;28;20056;-87
2023/01/14 07:40:12;;;;;;;35.42;6.13;;;6.10;99.90;;;;;;5013988;28;20135;-87
2023/01/14 07:42:37;;;;;;;25.88;6.00;;;6.10;99.90;;;;;;5016883;28;20472;-86
2023/01/14 07:45:03;;;;;;;33.30;6.88;;;6.10;99.90;;;;;;5000948;28;20496;-87
2023/01/14 07:47:29;;;;;;;35.35;6.65;;;6.10;99.90;;;;;;5010898;28;20144;-88
2023/01/14 07:49:55;;;;;;;29.00;6.20;;;6.10;99.90;;;;;;4999023;28;20485;-87
2023/01/14 07:52:21;;;;;;;26.58;7.13;;;6.20;99.90;;;;;;4999864;28;20037;-88
2023/01/14 07:54:46;;;;;;;26.80;6.57;;;6.20;99.90;;;;;;4998243;28;20049;-88
2023/01/14 07:57:16;;;;;;;27.55;6.97;;;6.20;99.90;;;;;;5014336;28;20037;-87
2023/01/14 07:59:41;;;;;;;26.52;7.20;;;6.20;99.90;;;;;;5016085;28;20448;-87
2023/01/14 08:02:10;;;;;;;27.05;5.65;;;6.20;99.90;;;;;;5002480;28;20098;-88
2023/01/14 08:04:36;;;;;;;24.90;6.30;;;6.30;99.90;;;;;;5000082;28;20052;-88
2023/01/14 08:07:05;;;;;;;30.42;6.43;;;6.30;99.90;;;;;;4996537;28;20049;-88
2023/01/14 08:09:31;;;;;;;25.00;6.18;;;6.30;99.90;;;;;;5001215;28;20496;-88
2023/01/14 08:11:56;;;;;;;27.70;6.65;;;6.30;99.90;;;;;;5001747;28;20042;-87
2023/01/14 08:14:22;;;;;;;24.67;5.97;;;6.30;99.90;;;;;;5017258;28;20046;-87
2023/01/14 08:16:48;;;;;;;30.65;7.05;;;6.30;99.90;;;;;;5018980;28;20084;-88
2023/01/14 08:19:16;;;;;;;22.35;5.68;;;6.30;99.90;;;;;;4998797;28;20054;-86
2023/01/14 08:21:42;;;;;;;28.33;6.40;;;6.40;99.90;;;;;;5026410;28;20595;-88
2023/01/14 08:24:07;;;;;;;30.50;6.75;;;6.40;99.90;;;;;;5011296;28;20125;-87
2023/01/14 08:26:39;;;;;;;28.92;6.30;;;6.40;99.90;;;;;;4999134;28;20652;-87
2023/01/14 08:29:05;;;;;;;29.40;7.18;;;6.40;99.90;;;;;;5007074;28;20144;-87
2023/01/14 08:31:31;;;;;;;27.02;6.97;;;6.40;99.90;;;;;;5017628;28;20502;-88
2023/01/14 08:33:59;;;;;;;28.02;6.13;;;6.40;99.90;;;;;;4998760;28;20063;-87
2023/01/14 08:36:24;;;;;;;28.30;6.13;;;6.40;99.90;;;;;;5006341;28;20615;-87
2023/01/14 08:38:52;;;;;;;24.50;5.82;;;6.40;99.90;;;;;;4999074;28;20052;-88
2023/01/14 08:41:18;;;;;;;25.02;6.43;;;6.40;99.90;;;;;;5007560;28;20050;-88
2023/01/14 08:43:48;;;;;;;30.58;7.32;;;6.40;99.90;;;;;;5013732;28;20417;-88
2023/01/14 08:46:17;;;;;;;29.00;6.05;;;6.40;99.90;;;;;;5011847;28;20053;-87
2023/01/14 08:48:43;;;;;;;24.02;4.88;;;6.40;99.90;;;;;;4999924;28;20372;-88
2023/01/14 08:51:11;;;;;;;31.40;5.70;;;6.40;99.90;;;;;;5015943;28;20466;-88
2023/01/14 08:53:38;;;;;;;23.85;5.63;;;6.40;99.90;;;;;;5006429;28;20556;-88
2023/01/14 08:56:05;;;;;;;20.20;4.80;;;6.40;99.90;;;;;;5015641;28;20124;-87
2023/01/14 08:58:31;;;;;;;24.10;5.30;;;6.40;99.90;;;;;;4997189;28;20612;-87
2023/01/14 09:01:02;;;;;;;25.40;5.05;;;6.40;99.90;;;;;;5004255;28;20128;-88
2023/01/14 09:03:30;;;;;;;22.83;5.20;;;6.40;99.90;;;;;;4999774;28;20046;-87
2023/01/14 09:05:56;;;;;;;27.92;5.55;;;6.40;99.90;;;;;;4999601;28;20061;-88
2023/01/14 09:19:23;;;;;;;25.52;5.30;;;6.40;99.90;;;;;;5011282;28;20049;-88
2023/01/14 09:21:49;;;;;;;24.13;5.00;;;6.40;99.90;;;;;;5001934;28;20473;-87
2023/01/14 09:24:15;;;;;;;18.35;4.57;;;6.40;99.90;;;;;;5018378;28;20380;-88
2023/01/14 09:26:42;;;;;;;22.05;5.18;;;6.40;99.90;;;;;;5013911;28;20052;-88
2023/01/14 09:29:08;;;;;;;23.77;4.50;;;6.40;99.90;;;;;;5016426;28;21082;-88
2023/01/14 09:31:33;;;;;;;19.40;4.15;;;6.40;99.90;;;;;;5013381;28;20489;-88
2023/01/14 09:33:59;;;;;;;21.73;4.55;;;6.40;99.90;;;;;;4996712;28;20045;-89
2023/01/14 09:36:25;;;;;;;21.92;5.30;;;6.40;99.90;;;;;;4995790;28;20057;-88
2023/01/14 09:38:52;;;;;;;24.33;4.53;;;6.40;99.90;;;;;;5014343;28;20046;-89
2023/01/14 09:41:23;;;;;;;22.65;4.80;;;6.40;99.90;;;;;;4998595;28;20041;-88
2023/01/14 09:43:49;;;;;;;18.52;4.47;;;6.40;99.90;;;;;;5014618;28;20523;-89
2023/01/14 09:46:15;;;;;;;21.15;4.85;;;6.50;99.90;;;;;;5016844;28;20042;-88
2023/01/14 09:48:44;;;;;;;18.95;4.25;;;6.50;99.90;;;;;;4997718;28;20426;-88
2023/01/14 09:51:19;;;;;;;17.33;4.05;;;6.50;99.90;;;;;;4997709;28;20360;-89
2023/01/14 09:53:57;;;;;;;20.48;4.60;;;6.50;99.90;;;;;;4996099;28;20038;-88
2023/01/14 09:56:34;;;;;;;16.95;5.15;;;6.50;99.90;;;;;;4998598;28;20049;-88
2023/01/14 09:59:33;;;;;;;19.67;4.32;;;6.50;99.90;;;;;;5000196;28;20073;-89
2023/01/14 10:02:27;;;;;;;18.40;4.03;;;6.60;99.90;;;;;;5000805;28;20048;-90
2023/01/14 10:05:28;;;;;;;15.55;4.05;;;6.60;99.90;;;;;;5013717;28;20049;-88
2023/01/14 10:08:01;;;;;;;15.60;4.10;;;6.60;99.90;;;;;;5021870;28;20111;-89
2023/01/14 10:10:32;;;;;;;12.90;3.63;;;6.60;99.90;;;;;;4998403;28;20042;-88
2023/01/14 10:13:05;;;;;;;8.75;3.33;;;6.70;99.90;;;;;;4952535;28;20750;-88
2023/01/14 10:15:41;;;;;;;12.75;3.78;;;6.70;99.90;;;;;;4993141;28;20556;-87
2023/01/14 10:18:25;;;;;;;13.10;3.38;;;6.70;99.90;;;;;;4977161;28;20046;-87
2023/01/14 10:21:22;;;;;;;14.98;3.03;;;6.70;99.90;;;;;;4987594;28;20153;-89
2023/01/14 10:23:47;;;;;;;12.30;3.10;;;6.80;99.90;;;;;;4997319;28;20045;-89
2023/01/14 10:26:17;;;;;;;11.00;2.88;;;6.80;99.90;;;;;;4996139;28;20056;-87
2023/01/14 10:28:52;;;;;;;11.65;3.50;;;6.80;99.90;;;;;;5008898;28;20211;-87
2023/01/14 10:31:28;;;;;;;13.32;4.18;;;6.80;99.90;;;;;;4996430;28;20037;-87
2023/01/14 10:33:55;;;;;;;12.38;3.08;;;6.90;99.90;;;;;;4996111;28;20545;-89
2023/01/14 10:36:23;;;;;;;17.90;3.10;;;6.90;99.90;;;;;;4996947;28;20408;-89
2023/01/14 10:38:52;;;;;;;10.90;2.78;;;7.00;99.90;;;;;;4957632;28;20103;-88
2023/01/14 10:41:48;;;;;;;9.23;3.20;;;7.00;99.90;;;;;;5005380;28;20271;-88
2023/01/14 10:44:26;;;;;;;10.05;3.30;;;7.00;99.90;;;;;;5012793;28;20041;-89
2023/01/14 10:46:55;;;;;;;12.68;3.15;;;7.10;99.90;;;;;;5012046;28;20120;-87
2023/01/14 10:49:31;;;;;;;8.10;3.22;;;7.10;99.90;;;;;;4996896;28;20037;-89
2023/01/14 10:51:57;;;;;;;12.10;2.78;;;7.10;99.90;;;;;;5015124;28;20133;-88
2023/01/14 10:54:27;;;;;;;8.82;2.30;;;7.20;99.90;;;;;;4998235;28;20116;-89
2023/01/14 10:57:12;;;;;;;8.82;2.50;;;7.20;99.90;;;;;;5008558;28;20053;-88
2023/01/14 10:59:43;;;;;;;9.43;2.88;;;7.20;99.90;;;;;;5009668;28;20034;-88
2023/01/14 11:02:30;;;;;;;10.27;2.88;;;7.20;99.90;;;;;;4998075;28;20050;-90
2023/01/14 11:04:59;;;;;;;8.55;2.83;;;7.30;99.90;;;;;;4998626;28;20037;-88
2023/01/14 11:07:38;;;;;;;7.25;2.60;;;7.40;99.90;;;;;;5012469;28;20401;-89
2023/01/14 11:10:31;;;;;;;8.10;2.40;;;7.40;99.90;;;;;;5005831;28;20041;-88
2023/01/14 11:13:27;;;;;;;8.90;2.70;;;7.50;99.90;;;;;;5002538;28;20049;-88
2023/01/14 11:15:52;;;;;;;;;;;7.50;99.90;;;;;;5018672;28;20373;-87
2023/01/14 11:18:18;;;;;;;6.78;2.50;;;7.40;99.90;;;;;;5001947;28;19924;-88
2023/01/14 11:20:51;;;;;;;5.68;2.70;;;7.50;99.90;;;;;;5001470;28;20049;-88
2023/01/14 11:23:28;;;;;;;5.88;2.55;;;7.50;99.90;;;;;;5017538;28;20056;-89
2023/01/14 11:25:54;;;;;;;9.18;2.55;;;7.50;99.90;;;;;;5009618;28;20504;-89
2023/01/14 11:28:20;;;;;;;5.78;2.83;;;7.50;99.90;;;;;;4998335;28;20045;-90
2023/01/14 11:30:54;;;;;;;9.18;2.78;;;7.50;99.90;;;;;;5010346;28;20052;-88
2023/01/14 11:33:25;;;;;;;5.85;2.47;;;7.50;99.90;;;;;;5024503;28;20045;-88
2023/01/14 11:35:57;;;;;;;5.72;2.35;;;7.50;99.90;;;;;;5000885;28;20097;-90
2023/01/14 11:38:26;;;;;;;6.50;2.50;;;7.50;99.90;;;;;;5000898;28;20040;-89
2023/01/14 11:44:00;;;;;;;7.38;2.92;;;7.50;99.90;;;;;;5015200;28;20056;-88
2023/01/14 11:46:26;;;;;;;6.47;3.13;;;7.50;99.90;;;;;;5001953;28;20063;-88
2023/01/14 11:49:22;;;;;;;6.30;3.05;;;7.50;99.90;;;;;;5000572;28;20030;-90
2023/01/14 11:52:04;;;;;;;7.15;3.00;;;7.50;99.90;;;;;;5009328;28;20115;-88
2023/01/14 11:54:38;;;;;;;5.88;2.60;;;7.50;99.90;;;;;;5000932;28;20045;-88
2023/01/14 11:57:15;;;;;;;8.65;3.20;;;7.50;99.90;;;;;;5001776;28;20152;-89
2023/01/14 11:59:42;;;;;;;4.97;2.60;;;7.60;99.90;;;;;;5001163;28;20046;-90
2023/01/14 12:02:11;;;;;;;6.47;2.65;;;7.60;99.90;;;;;;5013505;28;20494;-89
2023/01/14 12:05:01;;;;;;;6.22;2.28;;;7.60;99.90;;;;;;5016695;28;20038;-89
2023/01/14 12:07:29;;;;;;;6.07;2.67;;;7.60;99.90;;;;;;5003165;28;20512;-89
2023/01/14 12:10:04;;;;;;;8.38;2.65;;;7.60;99.90;;;;;;4999419;28;20050;-89
2023/01/14 12:18:31;;;;;;;6.45;2.70;;;7.70;99.90;;;;;;5024478;28;20109;-89
2023/01/14 12:21:00;;;;;;;6.10;2.28;;;7.70;99.90;;;;;;5013168;28;20282;-89
2023/01/14 12:23:29;;;;;;;6.15;2.17;;;7.70;99.90;;;;;;4997385;28;20188;-89
2023/01/14 12:25:58;;;;;;;4.47;2.50;;;7.70;99.90;;;;;;5016078;28;20068;-88
2023/01/14 12:28:39;;;;;;;3.17;2.00;;;7.80;99.90;;;;;;5007234;28;20041;-89
2023/01/14 12:31:17;;;;;;;6.00;1.98;;;7.80;99.90;;;;;;5016894;28;20037;-89
2023/01/14 12:33:49;;;;;;;7.10;2.90;;;7.80;99.90;;;;;;5018018;28;20069;-89
2023/01/14 12:36:35;;;;;;;3.10;2.00;;;7.90;99.90;;;;;;5009382;28;20448;-90
2023/01/14 12:47:43;;;;;;;4.45;1.73;;;8.00;99.90;;;;;;5022558;28;20132;-88
2023/01/14 12:50:12;;;;;;;4.55;2.10;;;8.10;99.90;;;;;;5002297;28;20128;-90
2023/01/14 12:52:46;;;;;;;3.95;1.95;;;8.10;99.90;;;;;;4999229;28;20116;-89
2023/01/14 12:55:34;;;;;;;4.57;1.83;;;8.20;99.90;;;;;;4998752;28;20084;-90
2023/01/14 12:58:05;;;;;;;3.08;2.00;;;8.20;99.90;;;;;;5011971;28;20074;-89
2023/01/14 13:00:34;;;;;;;4.80;2.03;;;8.30;99.90;;;;;;5009446;28;20041;-89
2023/01/14 13:03:05;;;;;;;4.22;2.17;;;8.30;99.90;;;;;;5007440;28;20037;-90
2023/01/14 13:05:39;;;;;;;3.47;1.88;;;8.40;99.90;;;;;;5011264;28;20073;-90
2023/01/14 13:08:29;;;;;;;5.05;1.95;;;8.40;99.90;;;;;;5014602;28;20033;-89
2023/01/14 13:11:11;;;;;;;2.97;1.77;;;8.50;99.90;;;;;;5015221;28;20034;-90
2023/01/14 13:13:41;;;;;;;3.22;2.05;;;8.50;99.90;;;;;;5001630;28;20104;-88
2023/01/14 13:16:41;;;;;;;7.82;2.20;;;8.60;99.90;;;;;;5009004;28;20402;-89
2023/01/14 13:19:25;;;;;;;3.83;2.00;;;8.60;99.90;;;;;;5011760;28;20034;-88
2023/01/14 13:21:55;;;;;;;2.40;1.55;;;8.70;99.90;;;;;;5007684;28;20053;-89
2023/01/14 13:24:54;;;;;;;2.80;1.67;;;8.70;99.90;;;;;;5000676;28;20057;-89
2023/01/14 13:27:34;;;;;;;3.97;1.52;;;8.80;99.90;;;;;;4999453;28;20086;-89
2023/01/14 13:30:18;;;;;;;2.78;1.60;;;8.80;99.90;;;;;;5011745;28;20033;-89
2023/01/14 13:32:59;;;;;;;3.00;1.80;;;8.90;99.90;;;;;;4998343;28;20041;-89
2023/01/14 13:35:33;;;;;;;5.18;2.10;;;8.90;99.90;;;;;;5000473;28;20132;-89
2023/01/14 13:38:28;;;;;;;3.10;1.65;;;9.00;99.90;;;;;;5002578;28;20033;-90
2023/01/14 13:41:06;;;;;;;2.95;1.65;;;9.00;99.90;;;;;;5001471;28;20445;-90
2023/01/14 13:43:36;;;;;;;1.70;1.50;;;9.10;99.90;;;;;;5001828;28;20099;-88
2023/01/14 13:46:04;;;;;;;2.30;1.63;;;9.10;99.90;;;;;;5000708;28;20129;-89
2023/01/14 13:48:40;;;;;;;2.58;1.40;;;9.20;99.90;;;;;;5015428;28;20045;-89
2023/01/14 13:51:27;;;;;;;3.17;1.50;;;9.20;99.90;;;;;;5007978;28;20041;-89
2023/01/14 13:54:03;;;;;;;3.80;1.40;;;9.20;99.90;;;;;;5024134;28;20045;-89